Terminal Aerodrome Forecast
Issued by NWS Newport/Morehead City, NC

Home | Current Version | Previous Version | Graphics & Text | Print | Product List | Glossary On
Versions: 1 2 3 4 5 6 7 8 9 10 11 12 13 14 15 16 17 18 19 20 21
000
FTUS42 KMHX 151312 AAA
TAFEWN
TAF AMD
KEWN 151312Z 1513/1612 VRB03KT P6SM SCT015 SCT080
      TEMPO 1513/1515 BKN008
     FM152000 VRB04KT P6SM -SHRA VCTS BKN035CB
     FM160300 00000KT P6SM BKN090
     FM161000 00000KT 3SM BR BKN003=

USA.gov is the U.S. government's official web portal to all federal, state and local government web resources and services.